States of Jersey

Home Log in

METAR EGJJ 141850Z 17012KT 6000 BKN003 12/11 Q1020

METAR EGJB 141850Z 18012KT 9999 FEW004 12/11 Q1020

METAR EGJA 141820Z 17015KT 9999 BKN008 12/11 Q1020

METAR LFRD 141900Z AUTO 16006KT 6000 OVC013 12/11 Q1021 BECMG 3000 BR BKN003

METAR LFRC 141900Z AUTO 18009KT 9999 OVC008 12/10 Q1020